Portada
METAR-TAF:

METAR-TAF

Aeroports :

Aeroport de Tànger Ibn Battuta

Tànger, Marroc

latitud: 35-44N, longitud: 005-54W, altitud: 19 m

Observació

L'informe es va fer fa 10 minuts, a les 13:00 UTC
Vent 8 kt del Sud/Sud-Oest
Temperatura 17°C
Humitat 77%
Pressió 1024 hPa
Visibilitat: 6000 m
Escasses núvols a una alçada de 1600 ft
Cel ennuvolat a una alçada de 4000 ft

METAR: GMTT 111300Z 21008KT 6000 FEW016 BKN040 17/13 Q1024 NOSIG

Hora: 13:10 (13:10 UTC)

Pronòstic

L'informe es va fer fa 2 hores i 10 minuts, a les 11:00 UTC
Pronòstic vàlid del 11 a les 12 UTC al 12 a les 18 UTC
Vent 10 kt del Sud
Visibilitat: 6000 m
Escasses núvols a una alçada de 1600 ft
Cel ennuvolat a una alçada de 3300 ft
Probabilitat 30% :
Temporalment
l' 12 a les 00 UTC al 12 a les 06 UTC
Visibilitat: 2000 m
Escasses núvols a una alçada de 1000 ft
Cel ennuvolat a una alçada de 1300 ft
pluja

TAF: GMTT 111100Z 1112/1218 19010KT 6000 FEW016 BKN033 PROB30 TEMPO 1200/1206 2000 RA FEW010 BKN013

Observacions i pronòstics meteorològics de més de 4000 aeroports (METAR i TAF).

Les estacions disponibles són els punts grocs i vermells al mapa.

Posi el ratolí al punt desitjat per veure el nom de l'estació.

Feu clic per veure les observacions i els pronòstics meteorològics.

Per canviar el mapa: feu clic els botons verds amb una creu de color negre per apropar; al botó verd amb un guió per allunyar la imatge; o en les fletxes verdes per a mapes adjacents.


METAR-TAF: